Date,TemperatureHighF,TemperatureAvgF,TemperatureLowF,DewpointHighF,DewpointAvgF,DewpointLowF,HumidityHigh,HumidityAvg,HumidityLow,PressureMaxIn,PressureMinIn,WindSpeedMaxMPH,WindSpeedAvgMPH,GustSpeedMaxMPH,PrecipitationSumIn
2013-1-1,17,8,-2,-100,-100,-100,0,0,100,0.00,40.00,4,2,8,0.00
2013-1-2,29,19,7,-100,-100,-100,0,0,100,0.00,40.00,10,4,15,0.00
2013-1-3,29,19,14,-100,-100,-100,0,0,100,0.00,40.00,12,5,17,0.00
2013-1-4,34,23,12,-100,-100,-100,0,0,100,0.00,40.00,8,4,12,0.00
2013-1-5,38,26,19,-100,-100,-100,0,0,100,0.00,40.00,16,5,21,0.00
2013-1-6,28,20,12,-100,-100,-100,0,0,100,0.00,40.00,11,4,19,0.00
2013-1-7,42,32,25,-100,-100,-100,0,0,100,0.00,40.00,14,6,23,0.00
2013-1-8,43,32,21,-100,-100,-100,0,0,100,0.00,40.00,13,5,19,0.00
2013-1-9,46,35,29,-100,-100,-100,0,0,100,0.00,40.00,10,4,14,0.00
2013-1-10,39,35,32,-100,-100,-100,0,0,100,0.00,40.00,12,5,14,0.00
2013-1-11,47,41,36,-100,-100,-100,0,0,100,0.00,40.00,17,6,22,0.00
2013-1-12,34,21,13,-100,-100,-100,0,0,100,0.00,40.00,19,9,28,0.00
2013-1-13,18,13,7,-100,-100,-100,0,0,100,0.00,40.00,13,7,18,0.00
2013-1-14,29,18,7,-100,-100,-100,0,0,100,0.00,40.00,11,2,11,0.00
2013-1-15,33,23,14,-100,-100,-100,0,0,100,0.00,40.00,13,4,16,0.00
2013-1-16,45,33,21,-100,-100,-100,0,0,100,0.00,40.00,18,7,18,0.00
2013-1-17,37,26,16,-100,-100,-100,0,0,100,0.00,40.00,7,2,14,0.00
2013-1-18,52,38,25,-100,-100,-100,0,0,100,0.00,40.00,21,10,29,0.00
2013-1-19,51,38,17,-100,-100,-100,0,0,100,0.00,40.00,21,5,30,0.00
2013-1-20,15,12,6,-100,-100,-100,0,0,100,0.00,40.00,14,6,27,0.00
2013-1-21,6,2,-4,-100,-100,-100,0,0,100,0.00,40.00,15,6,28,0.00
2013-1-22,18,10,1,-100,-100,-100,0,0,100,0.00,40.00,7,2,9,0.00
2013-1-23,28,16,4,-100,-100,-100,0,0,100,0.00,40.00,18,7,29,0.00
2013-1-24,19,11,2,-100,-100,-100,0,0,100,0.00,40.00,13,6,15,0.00
2013-1-25,36,24,12,-100,-100,-100,0,0,100,0.00,40.00,12,5,26,0.00
2013-1-26,34,22,7,-100,-100,-100,0,0,100,0.00,40.00,12,4,14,0.00
2013-1-27,35,33,31,-100,-100,-100,0,0,100,0.00,40.00,21,4,21,0.00
2013-1-28,44,36,32,-100,-100,-100,0,0,100,0.00,40.00,13,4,13,0.00
2013-1-29,46,36,31,-100,-100,-100,0,0,100,0.00,40.00,25,8,31,0.00
2013-1-30,29,22,13,-100,-100,-100,0,0,100,0.00,40.00,34,13,35,0.00
2013-1-31,8,5,1,-100,-100,-100,0,0,100,0.00,40.00,21,9,27,0.00
2013-2-1,24,7,-6,-100,-100,-100,0,0,100,0.00,40.00,12,5,17,0.00
2013-2-2,29,21,14,-100,-100,-100,0,0,100,0.00,40.00,13,6,23,0.00
2013-2-3,34,26,15,-100,-100,-100,0,0,100,0.00,40.00,21,6,26,0.00
2013-2-4,31,24,19,-100,-100,-100,0,0,100,0.00,40.00,23,6,23,0.00
2013-2-5,43,32,23,-100,-100,-100,0,0,100,0.00,40.00,19,5,22,0.00
2013-2-6,43,34,26,-100,-100,-100,0,0,100,0.00,40.00,16,4,23,0.00
2013-2-7,38,32,28,-100,-100,-100,0,0,100,0.00,40.00,20,6,22,0.00
2013-2-8,29,27,23,-100,-100,-100,0,0,100,0.00,40.00,14,5,16,0.00
2013-2-9,38,31,27,-100,-100,-100,0,0,100,0.00,40.00,17,7,19,0.00
2013-2-10,44,36,30,-100,-100,-100,0,0,100,0.00,40.00,22,10,30,0.00
2013-2-11,30,28,26,-100,-100,-100,0,0,100,0.00,40.00,30,14,39,0.00
2013-2-12,45,32,23,-100,-100,-100,0,0,100,0.00,40.00,17,4,19,0.00
2013-2-13,50,37,26,-100,-100,-100,0,0,100,0.00,40.00,8,4,17,0.00
2013-2-14,39,34,23,-100,-100,-100,0,0,100,0.00,40.00,21,8,24,0.00
2013-2-15,31,22,15,-100,-100,-100,0,0,100,0.00,40.00,16,6,22,0.00
2013-2-16,37,25,13,-100,-100,-100,0,0,100,0.00,40.00,6,3,10,0.00
2013-2-17,46,32,21,-100,-100,-100,0,0,100,0.00,40.00,16,7,20,0.00
2013-2-18,40,30,16,-100,-100,-100,0,0,100,0.00,40.00,23,9,30,0.00
2013-2-19,22,14,7,-100,-100,-100,0,0,100,0.00,40.00,23,10,33,0.00
2013-2-20,23,14,1,-100,-100,-100,0,0,100,0.00,40.00,11,4,13,0.00
2013-2-21,25,20,16,-100,-100,-100,0,0,100,0.00,40.00,25,8,26,0.00
2013-2-22,27,24,21,-100,-100,-100,0,0,100,0.00,40.00,17,6,22,0.00
2013-2-23,32,22,10,-100,-100,-100,0,0,100,0.00,40.00,7,3,9,0.00
2013-2-24,42,28,14,-100,-100,-100,0,0,100,0.00,40.00,7,2,8,0.00
2013-2-25,36,32,29,-100,-100,-100,0,0,100,0.00,40.00,10,3,11,0.00
2013-2-26,32,30,28,-100,-100,-100,0,0,100,0.00,40.00,18,9,28,0.00
2013-2-27,31,28,25,-100,-100,-100,0,0,100,0.00,40.00,17,10,24,0.00
2013-2-28,32,27,20,-100,-100,-100,0,0,100,0.00,40.00,15,9,21,0.00
2013-3-1,28,26,25,-100,-100,-100,0,0,100,0.00,40.00,15,6,16,0.00
2013-3-2,32,25,14,-100,-100,-100,0,0,100,0.00,40.00,9,4,11,0.00
2013-3-3,33,28,24,-100,-100,-100,0,0,100,0.00,40.00,23,5,23,0.00
2013-3-4,34,31,27,-100,-100,-100,0,0,100,0.00,40.00,20,6,23,0.00
2013-3-5,32,28,25,-100,-100,-100,0,0,100,0.00,40.00,22,8,33,0.00
2013-3-6,31,26,20,-100,-100,-100,0,0,100,0.00,40.00,14,6,21,0.00
2013-3-7,34,24,14,-100,-100,-100,0,0,100,0.00,40.00,16,4,16,0.00
2013-3-8,42,33,25,-100,-100,-100,0,0,100,0.00,40.00,16,7,22,0.00
2013-3-9,41,38,36,-100,-100,-100,0,0,100,0.00,40.00,14,6,18,0.00
2013-3-10,39,39,39,-100,-100,-100,0,0,100,0.00,40.00,5,3,10,0.00
2013-3-11,31,26,24,-100,-100,-100,0,0,100,0.00,40.00,11,5,17,0.00
2013-3-12,33,25,19,-100,-100,-100,0,0,100,0.00,40.00,26,8,26,0.00
2013-3-13,32,23,14,-100,-100,-100,0,0,100,0.00,40.00,11,3,18,0.00
2013-3-14,47,35,23,-100,-100,-100,0,0,100,0.00,40.00,9,4,14,0.00
2013-3-15,48,38,30,-100,-100,-100,0,0,100,0.00,40.00,11,4,16,0.00
2013-3-16,36,31,26,-100,-100,-100,0,0,100,0.00,40.00,19,8,29,0.00
2013-3-17,40,29,19,-100,-100,-100,0,0,100,0.00,40.00,18,8,21,0.00
2013-3-18,32,28,20,-100,-100,-100,0,0,100,0.00,40.00,25,10,33,0.00
2013-3-19,35,24,15,-100,-100,-100,0,0,100,0.00,40.00,18,6,25,0.00
2013-3-20,27,21,13,-100,-100,-100,0,0,100,0.00,40.00,26,9,27,0.00
2013-3-21,32,22,11,-100,-100,-100,0,0,100,0.00,40.00,8,3,16,0.00
2013-3-22,39,28,19,-100,-100,-100,0,0,100,0.00,40.00,6,2,16,0.00
2013-3-23,37,31,26,-100,-100,-100,0,0,100,0.00,40.00,12,5,17,0.00
2013-3-24,31,29,26,-100,-100,-100,0,0,100,0.00,40.00,15,8,23,0.00
2013-3-25,38,32,27,-100,-100,-100,0,0,100,0.00,40.00,24,9,27,0.00
2013-3-26,41,30,22,-100,-100,-100,0,0,100,0.00,40.00,13,4,17,0.00
2013-3-27,46,35,24,-100,-100,-100,0,0,100,0.00,40.00,3,1,12,0.00
2013-3-28,54,41,29,-100,-100,-100,0,0,100,0.00,40.00,9,2,11,0.00
2013-3-29,62,48,32,-100,-100,-100,0,0,100,0.00,40.00,9,3,13,0.00
2013-3-30,61,50,43,-100,-100,-100,0,0,100,0.00,40.00,10,4,13,0.00
2013-3-31,51,42,32,-100,-100,-100,0,0,100,0.00,40.00,26,8,29,0.00
2013-4-1,38,31,22,-100,-100,-100,0,0,100,0.00,40.00,20,7,23,0.00
2013-4-2,46,33,21,-100,-100,-100,0,0,100,0.00,40.00,13,4,15,0.00
2013-4-3,51,38,25,-100,-100,-100,0,0,100,0.00,40.00,9,4,14,0.00
2013-4-4,59,46,32,-100,-100,-100,0,0,100,0.00,40.00,18,6,19,0.00
2013-4-5,58,46,31,-100,-100,-100,0,0,100,0.00,40.00,14,6,20,0.00
2013-4-6,66,56,48,-100,-100,-100,0,0,100,0.00,40.00,18,9,26,0.00
2013-4-7,65,49,34,-100,-100,-100,0,0,100,0.00,40.00,11,4,17,0.00
2013-4-8,77,63,49,-100,-100,-100,0,0,100,0.00,40.00,14,5,19,0.00
2013-4-9,53,45,40,-100,-100,-100,0,0,100,0.00,40.00,19,9,25,0.00
2013-4-10,40,37,35,-100,-100,-100,0,0,100,0.00,40.00,17,9,29,0.00
2013-4-11,40,37,33,-100,-100,-100,0,0,100,0.00,40.00,11,4,14,0.00
2013-4-12,40,35,32,-100,-100,-100,0,0,100,0.00,40.00,21,10,22,0.00
2013-4-13,51,40,29,-100,-100,-100,0,0,100,0.00,40.00,14,5,16,0.00
2013-4-14,68,48,39,-100,-100,-100,0,0,100,0.00,40.00,22,6,27,0.00
2013-4-15,47,41,36,-100,-100,-100,0,0,100,0.00,40.00,16,6,19,0.00
2013-4-16,50,42,33,-100,-100,-100,0,0,100,0.00,40.00,15,6,18,0.00
2013-4-17,44,41,38,-100,-100,-100,0,0,100,0.00,40.00,22,9,25,0.00
2013-4-18,40,36,32,-100,-100,-100,0,0,100,0.00,40.00,23,10,28,0.00
2013-4-19,40,35,29,-100,-100,-100,0,0,100,0.00,40.00,28,11,34,0.00
2013-4-20,49,37,26,-100,-100,-100,0,0,100,0.00,40.00,14,4,14,0.00
2013-4-21,67,50,40,-100,-100,-100,0,0,100,0.00,40.00,19,8,31,0.00
2013-4-22,62,51,35,-100,-100,-100,0,0,100,0.00,40.00,14,4,24,0.00
2013-4-23,43,36,32,-100,-100,-100,0,0,100,0.00,40.00,23,11,29,0.00
2013-4-24,55,41,28,-100,-100,-100,0,0,100,0.00,40.00,20,6,25,0.00
2013-4-25,63,49,32,-100,-100,-100,0,0,100,0.00,40.00,14,7,16,0.00
2013-4-26,71,60,50,-100,-100,-100,0,0,100,0.00,40.00,23,10,28,0.00
2013-4-27,70,58,45,-100,-100,-100,0,0,100,0.00,40.00,11,4,14,0.00
2013-4-28,81,63,47,-100,-100,-100,0,0,100,0.00,40.00,15,5,19,0.00
2013-4-29,81,66,56,-100,-100,-100,0,0,100,0.00,40.00,11,4,12,0.00
2013-4-30,81,72,55,-100,-100,-100,0,0,100,0.00,40.00,21,9,30,0.00
2013-5-1,55,46,36,-100,-100,-100,0,0,100,0.00,40.00,35,16,37,0.00
2013-5-2,38,35,32,-100,-100,-100,0,0,100,0.00,40.00,34,11,37,0.00
2013-5-3,36,33,32,-100,-100,-100,0,0,100,0.00,40.00,27,8,27,0.00
2013-5-4,45,38,33,-100,-100,-100,0,0,100,0.00,40.00,19,10,25,0.00
2013-5-5,61,49,41,-100,-100,-100,0,0,100,0.00,40.00,13,6,19,0.00
2013-5-6,74,60,44,-100,-100,-100,0,0,100,0.00,40.00,10,4,11,0.00
2013-5-7,78,64,48,-100,-100,-100,0,0,100,0.00,40.00,6,1,15,0.00
2013-5-8,74,61,51,-100,-100,-100,0,0,100,0.00,40.00,12,4,15,0.00
2013-5-9,69,59,52,-100,-100,-100,0,0,100,0.00,40.00,15,4,25,0.00
2013-5-10,68,56,47,-100,-100,-100,0,0,100,0.00,40.00,16,7,24,0.00
2013-5-11,58,52,45,-100,-100,-100,0,0,100,0.00,40.00,17,8,43,0.00
2013-5-12,63,50,34,-100,-100,-100,0,0,100,0.00,40.00,8,4,19,0.00
2013-5-13,78,59,39,-100,-100,-100,0,0,100,0.00,40.00,23,6,26,0.00
2013-5-14,99,80,62,-100,-100,-100,0,0,100,0.00,40.00,20,6,35,0.00
2013-5-15,82,72,62,-100,-100,-100,0,0,100,0.00,40.00,17,4,22,0.00
2013-5-16,83,62,54,-100,-100,-100,0,0,100,0.00,40.00,13,4,17,0.00
2013-5-17,83,69,63,-100,-100,-100,0,0,100,0.00,40.00,13,4,13,0.00
2013-5-18,86,74,60,-100,-100,-100,0,0,100,0.00,40.00,13,4,19,0.00
2013-5-19,88,74,62,-100,-100,-100,0,0,100,0.00,40.00,21,6,25,0.00
2013-5-20,76,67,59,-100,-100,-100,0,0,100,0.00,40.00,17,8,27,0.00
2013-5-21,70,63,58,-100,-100,-100,0,0,100,0.00,40.00,13,6,25,0.00
2013-5-22,62,57,54,-100,-100,-100,0,0,100,0.00,40.00,10,4,19,0.00
2013-5-23,69,59,51,-100,-100,-100,0,0,100,0.00,40.00,20,7,26,0.00
2013-5-24,73,60,46,-100,-100,-100,0,0,100,0.00,40.00,15,6,22,0.00
2013-5-25,61,54,51,-100,-100,-100,0,0,100,0.00,40.00,16,7,25,0.00
2013-5-26,61,54,49,-100,-100,-100,0,0,100,0.00,40.00,19,8,24,0.00
2013-5-27,76,64,55,-100,-100,-100,0,0,100,0.00,40.00,14,3,33,0.00
2013-5-28,81,70,62,-100,-100,-100,0,0,100,0.00,40.00,6,3,11,0.00
2013-5-29,72,67,65,-100,-100,-100,0,0,100,0.00,40.00,17,6,22,0.00
2013-5-30,71,67,63,-100,-100,-100,0,0,100,0.00,40.00,17,10,22,0.00
2013-5-31,80,70,60,-100,-100,-100,0,0,100,0.00,40.00,21,8,22,0.00
2013-6-1,70,62,56,-100,-100,-100,0,0,100,0.00,40.00,19,7,21,0.00
2013-6-2,68,58,51,-100,-100,-100,0,0,100,0.00,40.00,18,6,20,0.00
2013-6-3,73,61,47,-100,-100,-100,0,0,100,0.00,40.00,9,3,15,0.00
2013-6-4,64,60,55,-100,-100,-100,0,0,100,0.00,40.00,18,6,19,0.00
2013-6-5,72,64,58,-100,-100,-100,0,0,100,0.00,40.00,10,2,13,0.00
2013-6-6,70,61,55,-100,-100,-100,0,0,100,0.00,40.00,15,5,19,0.00
2013-6-7,72,60,52,-100,-100,-100,0,0,100,0.00,40.00,10,3,14,0.00
2013-6-8,70,60,50,-100,-100,-100,0,0,100,0.00,40.00,12,4,15,0.00
2013-6-9,72,65,61,-100,-100,-100,0,0,100,0.00,40.00,14,8,20,0.00
2013-6-10,80,68,58,-100,-100,-100,0,0,100,0.00,40.00,7,1,9,0.00
2013-6-11,89,74,63,-100,-100,-100,0,0,100,0.00,40.00,8,3,13,0.00
2013-6-12,89,76,65,-100,-100,-100,0,0,100,0.00,40.00,23,7,35,0.00
2013-6-13,85,73,62,-100,-100,-100,0,0,100,0.00,40.00,16,5,24,0.00
2013-6-14,75,69,63,-100,-100,-100,0,0,100,0.00,40.00,30,7,30,0.00
2013-6-15,83,72,65,-100,-100,-100,0,0,100,0.00,40.00,14,4,22,0.00
2013-6-16,89,75,67,-100,-100,-100,0,0,100,0.00,40.00,7,2,11,0.00
2013-6-17,91,76,59,-100,-100,-100,0,0,100,0.00,40.00,13,4,17,0.00
2013-6-18,85,74,63,-100,-100,-100,0,0,100,0.00,40.00,10,3,12,0.00
2013-6-19,84,75,65,-100,-100,-100,0,0,100,0.00,40.00,10,4,12,0.00
2013-6-20,88,77,68,-100,-100,-100,0,0,100,0.00,40.00,14,6,23,0.00
2013-6-22,93,85,73,-100,-100,-100,0,0,100,0.00,40.00,19,8,38,0.00
2013-6-23,83,76,65,-100,-100,-100,0,0,100,0.00,40.00,15,6,26,0.00
2013-6-24,77,73,66,-100,-100,-100,0,0,100,0.00,40.00,9,4,34,0.00
2013-6-25,89,78,70,-100,-100,-100,0,0,100,0.00,40.00,12,4,16,0.00
2013-6-26,92,82,73,-100,-100,-100,0,0,100,0.00,40.00,7,2,21,0.00
2013-6-27,87,76,66,-100,-100,-100,0,0,100,0.00,40.00,11,3,17,0.00
2013-6-28,87,78,67,-100,-100,-100,0,0,100,0.00,40.00,21,7,29,0.00
2013-6-29,76,70,63,-100,-100,-100,0,0,100,0.00,40.00,25,9,31,0.00
2013-6-30,77,68,60,-100,-100,-100,0,0,100,0.00,40.00,15,5,19,0.00
2013-7-1,83,71,57,-100,-100,-100,0,0,100,0.00,40.00,14,4,21,0.00
2013-7-2,85,72,58,-100,-100,-100,0,0,100,0.00,40.00,10,2,17,0.00
2013-7-3,87,72,57,-100,-100,-100,0,0,100,0.00,40.00,8,3,9,0.00
2013-7-4,87,77,65,-100,-100,-100,0,0,100,0.00,40.00,16,6,16,0.00
2013-7-5,90,78,66,-100,-100,-100,0,0,100,0.00,40.00,19,8,19,0.00
2013-7-6,91,78,69,-100,-100,-100,0,0,100,0.00,40.00,16,7,20,0.00
2013-7-7,94,84,74,-100,-100,-100,0,0,100,0.00,40.00,14,6,21,0.00
2013-7-8,94,82,75,-100,-100,-100,0,0,100,0.00,40.00,7,2,8,0.00
2013-7-9,96,83,74,-100,-100,-100,0,0,100,0.00,40.00,10,4,19,0.00
2013-7-10,85,74,67,-100,-100,-100,0,0,100,0.00,40.00,15,5,22,0.00
2013-7-11,87,74,61,-100,-100,-100,0,0,100,0.00,40.00,12,3,12,0.00
2013-7-12,88,76,64,-100,-100,-100,0,0,100,0.00,40.00,15,6,23,0.00
2013-7-13,80,74,69,-100,-100,-100,0,0,100,0.00,40.00,13,6,16,0.00
2013-7-14,90,78,67,-100,-100,-100,0,0,100,0.00,40.00,11,5,16,0.00
2013-7-15,89,77,64,-100,-100,-100,0,0,100,0.00,40.00,13,4,14,0.00
2013-7-16,96,84,74,-100,-100,-100,0,0,100,0.00,40.00,6,2,10,0.00
2013-7-17,98,85,73,-100,-100,-100,0,0,100,0.00,40.00,8,2,12,0.00
2013-7-18,94,87,75,-100,-100,-100,0,0,100,0.00,40.00,16,6,25,0.00
2013-7-19,98,84,74,-100,-100,-100,0,0,100,0.00,40.00,12,5,14,0.00
2013-7-20,92,74,62,-100,-100,-100,0,0,100,0.00,40.00,5,1,15,0.00
2013-7-21,83,74,65,-100,-100,-100,0,0,100,0.00,40.00,10,3,17,0.00
2013-7-22,95,80,68,-100,-100,-100,0,0,100,0.00,40.00,28,6,28,0.00
2013-7-23,76,69,63,-100,-100,-100,0,0,100,0.00,40.00,9,4,16,0.00
2013-7-24,83,71,58,-100,-100,-100,0,0,100,0.00,40.00,6,2,9,0.00
2013-7-25,87,75,62,-100,-100,-100,0,0,100,0.00,40.00,16,4,21,0.00
2013-7-26,79,72,64,-100,-100,-100,0,0,100,0.00,40.00,23,6,28,0.00
2013-7-27,74,63,52,-100,-100,-100,0,0,100,0.00,40.00,17,6,23,0.00
2013-7-28,80,66,50,-100,-100,-100,0,0,100,0.00,40.00,14,5,18,0.00
2013-7-29,76,64,51,-100,-100,-100,0,0,100,0.00,40.00,9,3,12,0.00
2013-7-30,70,67,64,-100,-100,-100,0,0,100,0.00,40.00,11,3,11,0.00
2013-7-31,87,74,63,-100,-100,-100,0,0,100,0.00,40.00,9,3,12,0.00
2013-8-1,90,73,60,-100,-100,-100,0,0,100,0.00,40.00,10,2,13,0.00
2013-8-2,81,71,65,-100,-100,-100,0,0,100,0.00,40.00,9,3,20,0.00
2013-8-3,80,70,60,-100,-100,-100,0,0,100,0.00,40.00,7,4,12,0.00
2013-8-4,83,71,56,-100,-100,-100,0,0,100,0.00,40.00,13,3,14,0.00
2013-8-5,87,74,65,-100,-100,-100,0,0,100,0.00,40.00,11,4,14,0.00
2013-8-6,91,79,65,-100,-100,-100,0,0,100,0.00,40.00,12,4,15,0.00
2013-8-7,83,75,69,-100,-100,-100,0,0,100,0.00,40.00,13,4,19,0.00
2013-8-8,84,72,58,-100,-100,-100,0,0,100,0.00,40.00,7,2,10,0.00
2013-8-9,81,73,65,-100,-100,-100,0,0,100,0.00,40.00,14,3,17,0.00
2013-8-10,86,71,58,-100,-100,-100,0,0,100,0.00,40.00,6,2,11,0.00
2013-8-11,86,75,65,-100,-100,-100,0,0,100,0.00,40.00,16,4,31,0.00
2013-8-12,84,73,65,-100,-100,-100,0,0,100,0.00,40.00,16,5,21,0.00
2013-8-13,77,66,58,-100,-100,-100,0,0,100,0.00,40.00,7,3,12,0.00
2013-8-14,80,67,54,-100,-100,-100,0,0,100,0.00,40.00,4,1,7,0.00
2013-8-15,74,62,59,-100,-100,-100,0,0,100,0.00,40.00,13,4,13,0.00
2013-8-16,80,64,53,-100,-100,-100,0,0,100,0.00,40.00,7,2,13,0.00
2013-8-17,83,68,55,-100,-100,-100,0,0,100,0.00,40.00,8,2,15,0.00
2013-8-18,83,70,58,-100,-100,-100,0,0,100,0.00,40.00,11,2,13,0.00
2013-8-19,87,70,59,-100,-100,-100,0,0,100,0.00,40.00,13,4,19,0.00
2013-8-20,91,81,71,-100,-100,-100,0,0,100,0.00,40.00,22,8,23,0.00
2013-8-21,91,81,72,-100,-100,-100,0,0,100,0.00,40.00,14,5,18,0.00
2013-8-22,91,79,73,-100,-100,-100,0,0,100,0.00,40.00,6,2,11,0.00
2013-8-23,87,78,69,-100,-100,-100,0,0,100,0.00,40.00,9,3,12,0.00
2013-8-24,91,79,72,-100,-100,-100,0,0,100,0.00,40.00,15,6,18,0.00
2013-8-25,95,84,73,-100,-100,-100,0,0,100,0.00,40.00,15,7,23,0.00
2013-8-26,98,84,73,-100,-100,-100,0,0,100,0.00,40.00,14,7,17,0.00
2013-8-27,95,83,75,-100,-100,-100,0,0,100,0.00,40.00,16,5,17,0.00
2013-8-28,100,93,78,-100,-100,-100,0,0,100,0.00,40.00,4,3,9,0.00
2013-8-29,96,83,70,-100,-100,-100,0,0,100,0.00,40.00,15,3,15,0.00
2013-8-30,102,84,72,-100,-100,-100,0,0,100,0.00,40.00,21,4,21,0.00
2013-8-31,94,79,68,-100,-100,-100,0,0,100,0.00,40.00,5,2,11,0.00
2013-9-1,84,76,66,-100,-100,-100,0,0,100,0.00,40.00,19,6,23,0.00
2013-9-2,80,67,57,-100,-100,-100,0,0,100,0.00,40.00,6,2,14,0.00
2013-9-3,85,67,50,-100,-100,-100,0,0,100,0.00,40.00,2,1,12,0.00
2013-9-4,94,77,60,-100,-100,-100,0,0,100,0.00,40.00,10,2,11,0.00
2013-9-5,91,78,69,-100,-100,-100,0,0,100,0.00,40.00,8,2,14,0.00
2013-9-6,92,80,67,-100,-100,-100,0,0,100,0.00,40.00,14,5,18,0.00
2013-9-7,92,79,73,-100,-100,-100,0,0,100,0.00,40.00,8,3,13,0.00
2013-9-8,83,76,70,-100,-100,-100,0,0,100,0.00,40.00,11,4,16,0.00
2013-9-9,100,84,70,-100,-100,-100,0,0,100,0.00,40.00,14,6,24,0.00
2013-9-10,96,83,68,-100,-100,-100,0,0,100,0.00,40.00,16,6,18,0.00
2013-9-11,91,78,70,-100,-100,-100,0,0,100,0.00,40.00,7,2,20,0.00
2013-9-12,80,70,62,-100,-100,-100,0,0,100,0.00,40.00,22,6,28,0.00
2013-9-13,76,62,50,-100,-100,-100,0,0,100,0.00,40.00,6,2,14,0.00
2013-9-14,78,64,49,-100,-100,-100,0,0,100,0.00,40.00,15,5,17,0.00
2013-9-15,69,66,62,-100,-100,-100,0,0,100,0.00,40.00,17,6,21,0.00
2013-9-16,68,60,53,-100,-100,-100,0,0,100,0.00,40.00,13,4,13,0.00
2013-9-17,65,59,54,-100,-100,-100,0,0,100,0.00,40.00,11,5,14,0.00
2013-9-18,80,67,65,-100,-100,-100,0,0,100,0.00,40.00,12,6,16,0.00
2013-9-19,83,74,64,-100,-100,-100,0,0,100,0.00,40.00,13,5,20,0.00
2013-9-20,68,60,53,-100,-100,-100,0,0,100,0.00,40.00,12,5,20,0.00
2013-9-21,74,58,45,-100,-100,-100,0,0,100,0.00,40.00,8,1,10,0.00
2013-9-22,80,65,51,-100,-100,-100,0,0,100,0.00,40.00,16,6,16,0.00
2013-9-23,77,64,53,-100,-100,-100,0,0,100,0.00,40.00,13,6,25,0.00
2013-9-24,76,64,57,-100,-100,-100,0,0,100,0.00,40.00,9,3,18,0.00
2013-9-25,79,65,52,-100,-100,-100,0,0,100,0.00,40.00,13,4,13,0.00
2013-9-26,83,71,58,-100,-100,-100,0,0,100,0.00,40.00,18,7,27,0.00
2013-9-27,87,76,67,-100,-100,-100,0,0,100,0.00,40.00,19,7,22,0.00
2013-9-28,73,63,52,-100,-100,-100,0,0,100,0.00,40.00,16,6,22,0.00
2013-9-29,76,61,43,-100,-100,-100,0,0,100,0.00,40.00,15,6,19,0.00
2013-9-30,78,65,53,-100,-100,-100,0,0,100,0.00,40.00,21,9,26,0.00
2013-10-1,78,67,58,-100,-100,-100,0,0,100,0.00,40.00,6,2,10,0.00
2013-10-2,84,70,57,-100,-100,-100,0,0,100,0.00,40.00,12,5,16,0.00
2013-10-3,84,73,66,-100,-100,-100,0,0,100,0.00,40.00,10,4,15,0.00
2013-10-4,76,68,63,-100,-100,-100,0,0,100,0.00,40.00,12,5,18,0.00
2013-10-5,69,55,46,-100,-100,-100,0,0,100,0.00,40.00,17,8,25,0.00
2013-10-6,51,47,43,-100,-100,-100,0,0,100,0.00,40.00,12,4,14,0.00
2013-10-7,75,57,41,-100,-100,-100,0,0,100,0.00,40.00,13,3,17,0.00
2013-10-8,78,63,50,-100,-100,-100,0,0,100,0.00,40.00,28,9,28,0.00
2013-10-9,76,64,54,-100,-100,-100,0,0,100,0.00,40.00,13,6,20,0.00
2013-10-10,78,64,50,-100,-100,-100,0,0,100,0.00,40.00,10,4,17,0.00
2013-10-11,72,65,58,-100,-100,-100,0,0,100,0.00,40.00,16,9,23,0.00
2013-10-12,67,56,47,-100,-100,-100,0,0,100,0.00,40.00,18,5,23,0.00
2013-10-13,67,50,35,-100,-100,-100,0,0,100,0.00,40.00,6,2,15,0.00
2013-10-14,62,53,42,-100,-100,-100,0,0,100,0.00,40.00,16,7,24,0.00
2013-10-15,58,50,47,-100,-100,-100,0,0,100,0.00,40.00,20,10,29,0.00
2013-10-16,52,46,40,-100,-100,-100,0,0,100,0.00,40.00,11,4,16,0.00
2013-10-17,63,49,40,-100,-100,-100,0,0,100,0.00,40.00,22,4,22,0.00
2013-10-18,54,45,37,-100,-100,-100,0,0,100,0.00,40.00,9,4,18,0.00
2013-10-19,56,45,34,-100,-100,-100,0,0,100,0.00,40.00,16,5,23,0.00
2013-10-20,62,50,40,-100,-100,-100,0,0,100,0.00,40.00,16,6,25,0.00
2013-10-21,51,42,32,-100,-100,-100,0,0,100,0.00,40.00,12,4,23,0.00
2013-10-22,41,39,35,-100,-100,-100,0,0,100,0.00,40.00,10,4,18,0.00
2013-10-23,42,37,32,-100,-100,-100,0,0,100,0.00,40.00,10,4,11,0.00
2013-10-24,47,38,32,-100,-100,-100,0,0,100,0.00,40.00,17,5,17,0.00
2013-10-25,56,42,26,-100,-100,-100,0,0,100,0.00,40.00,20,5,25,0.00
2013-10-26,53,44,34,-100,-100,-100,0,0,100,0.00,40.00,23,7,25,0.00
2013-10-27,65,44,27,-100,-100,-100,0,0,100,0.00,40.00,14,3,24,0.00
2013-10-28,51,42,37,-100,-100,-100,0,0,100,0.00,40.00,20,9,23,0.00
2013-10-29,54,46,39,-100,-100,-100,0,0,100,0.00,40.00,12,6,15,0.00
2013-10-30,65,56,52,-100,-100,-100,0,0,100,0.00,40.00,19,6,21,0.00
2013-10-31,53,45,40,-100,-100,-100,0,0,100,0.00,40.00,15,6,17,0.00
2013-11-1,57,47,40,-100,-100,-100,0,0,100,0.00,40.00,17,8,22,0.00
2013-11-2,55,46,37,-100,-100,-100,0,0,100,0.00,40.00,15,6,15,0.00
2013-11-3,56,46,35,-100,-100,-100,0,0,100,0.00,40.00,21,10,32,0.00
2013-11-4,54,48,35,-100,-100,-100,0,0,100,0.00,40.00,18,7,19,0.00
2013-11-5,48,42,33,-100,-100,-100,0,0,100,0.00,40.00,16,5,22,0.00
2013-11-6,46,37,32,-100,-100,-100,0,0,100,0.00,40.00,27,7,31,0.00
2013-11-7,46,37,29,-100,-100,-100,0,0,100,0.00,40.00,10,4,19,0.00
2013-11-8,58,43,25,-100,-100,-100,0,0,100,0.00,40.00,14,7,29,0.00
2013-11-9,56,46,37,-100,-100,-100,0,0,100,0.00,40.00,16,7,28,0.00
2013-11-10,49,40,29,-100,-100,-100,0,0,100,0.00,40.00,8,4,12,0.00
2013-11-11,47,31,18,-100,-100,-100,0,0,100,0.00,40.00,22,9,31,0.00
2013-11-12,32,22,11,-100,-100,-100,0,0,100,0.00,40.00,10,4,12,0.00
2013-11-13,51,34,21,-100,-100,-100,0,0,100,0.00,40.00,15,6,25,0.00
2013-11-14,53,42,32,-100,-100,-100,0,0,100,0.00,40.00,9,4,15,0.00
2013-11-15,56,43,29,-100,-100,-100,0,0,100,0.00,40.00,15,4,17,0.00
2013-11-16,65,52,45,-100,-100,-100,0,0,100,0.00,40.00,21,8,33,0.00
2013-11-17,50,45,40,-100,-100,-100,0,0,100,0.00,40.00,18,5,21,0.00
2013-11-18,47,37,31,-100,-100,-100,0,0,100,0.00,40.00,18,6,19,0.00
2013-11-19,55,42,30,-100,-100,-100,0,0,100,0.00,40.00,25,9,27,0.00
2013-11-20,47,42,38,-100,-100,-100,0,0,100,0.00,40.00,20,11,27,0.00
2013-11-21,38,31,25,-100,-100,-100,0,0,100,0.00,40.00,19,7,28,0.00
2013-11-22,24,20,12,-100,-100,-100,0,0,100,0.00,40.00,10,3,20,0.00
2013-11-23,20,13,3,-100,-100,-100,0,0,100,0.00,40.00,21,5,24,0.00
2013-11-24,28,15,3,-100,-100,-100,0,0,100,0.00,40.00,19,7,25,0.00
2013-11-25,38,31,23,-100,-100,-100,0,0,100,0.00,40.00,19,6,19,0.00
2013-11-26,31,25,17,-100,-100,-100,0,0,100,0.00,40.00,27,8,32,0.00
2013-11-27,26,20,10,-100,-100,-100,0,0,100,0.00,40.00,8,5,16,0.00
2013-11-28,34,25,19,-100,-100,-100,0,0,100,0.00,40.00,19,6,21,0.00
2013-11-29,37,26,13,-100,-100,-100,0,0,100,0.00,40.00,13,4,16,0.00
2013-11-30,51,38,31,-100,-100,-100,0,0,100,0.00,40.00,12,4,16,0.00
2013-12-1,39,34,27,-100,-100,-100,0,0,100,0.00,40.00,7,3,13,0.00
2013-12-2,47,39,33,-100,-100,-100,0,0,100,0.00,40.00,12,4,14,0.00
2013-12-3,39,36,32,-100,-100,-100,0,0,100,0.00,40.00,10,4,14,0.00
2013-12-4,38,30,18,-100,-100,-100,0,0,100,0.00,40.00,22,6,30,0.00
2013-12-5,18,12,7,-100,-100,-100,0,0,100,0.00,40.00,21,9,30,0.00
2013-12-6,16,7,1,-100,-100,-100,0,0,100,0.00,40.00,18,7,18,0.00
2013-12-7,12,6,-2,-100,-100,-100,0,0,100,0.00,40.00,7,3,12,0.00
2013-12-8,20,15,11,-100,-100,-100,0,0,100,0.00,40.00,12,4,15,0.00
2013-12-9,13,5,-1,-100,-100,-100,0,0,100,0.00,40.00,18,7,21,0.00
2013-12-10,21,17,8,-100,-100,-100,0,0,100,0.00,40.00,26,7,26,0.00
2013-12-11,20,8,1,-100,-100,-100,0,0,100,0.00,40.00,10,4,22,0.00
2013-12-12,32,18,3,-100,-100,-100,0,0,100,0.00,40.00,10,4,13,0.00
2013-12-13,28,21,14,-100,-100,-100,0,0,100,0.00,40.00,15,5,22,0.00
2013-12-14,23,18,10,-100,-100,-100,0,0,100,0.00,40.00,16,6,22,0.00
2013-12-15,15,14,10,-100,-100,-100,0,0,100,0.00,40.00,10,4,12,0.00
2013-12-16,28,20,13,-100,-100,-100,0,0,100,0.00,40.00,12,4,13,0.00
2013-12-17,36,27,20,-100,-100,-100,0,0,100,0.00,40.00,19,6,29,0.00
2013-12-18,47,32,17,-100,-100,-100,0,0,100,0.00,40.00,12,5,23,0.00
2013-12-19,31,28,24,-100,-100,-100,0,0,100,0.00,40.00,15,6,23,0.00
2013-12-20,24,22,21,-100,-100,-100,0,0,100,0.00,40.00,18,8,19,0.00
2013-12-21,25,21,18,-100,-100,-100,0,0,100,0.00,40.00,13,6,22,0.00
2013-12-22,25,18,6,-100,-100,-100,0,0,100,0.00,40.00,21,9,27,0.00
2013-12-23,7,2,-3,-100,-100,-100,0,0,100,0.00,40.00,15,6,20,0.00
2013-12-24,17,3,-13,-100,-100,-100,0,0,100,0.00,40.00,16,4,21,0.00
2013-12-25,33,25,18,-100,-100,-100,0,0,100,0.00,40.00,15,5,19,0.00
2013-12-26,40,29,20,-100,-100,-100,0,0,100,0.00,40.00,9,3,10,0.00
2013-12-27,50,33,19,-100,-100,-100,0,0,100,0.00,40.00,14,4,16,0.00
2013-12-28,54,38,24,-100,-100,-100,0,0,100,0.00,40.00,19,6,29,0.00
2013-12-29,19,8,1,-100,-100,-100,0,0,100,0.00,40.00,34,10,37,0.00
2013-12-30,14,10,2,-100,-100,-100,0,0,100,0.00,40.00,7,3,10,0.00
2013-12-31,10,7,3,-100,-100,-100,0,0,100,0.00,40.00,12,5,17,0.00
2014-1-1,7,5,3,-100,-100,-100,0,0,100,0.00,40.00,15,6,20,0.00
2014-1-2,11,4,-5,-100,-100,-100,0,0,100,0.00,40.00,10,4,14,0.00